Terminal Aerodrome Forecast
Issued by NWS

Home | Current Version | Previous Version | Text Only | Print | Product List | Glossary On
Versions: 1 2 3 4 5 6 7 8 9 10 11 12 13 14 15 16 17 18 19 20 21
000
FTUS41 KBGM 210500
TAFITH
TAF
KITH 210536Z 2106/2206 17012G18KT P6SM SCT050 BKN250
     FM211200 18012G22KT P6SM SCT025 BKN040 PROB30 2117/2121 4SM
      -TSRA BR OVC025CB
     FM212100 29008KT P6SM SCT015 BKN050
     FM220400 30006KT P6SM OVC015=

USA.gov is the U.S. government's official web portal to all federal, state and local government web resources and services.